Time;durP1;ratioP1;P1;durP2;ratioP2;P2;SDS_P1;SDS_P2;PMS_P1;PMS_P2;Temp;Humidity;BMP_temperature;BMP_pressure;BME280_temperature;BME280_humidity;BME280_pressure;Samples;Min_cycle;Max_cycle;Signal;HPM_P1;HPM_P2
2021/08/07 00:01:24;;;;;;;1.20;0.70;;;20.20;99.90;;;;;;5055383;28;20513;-82
2021/08/07 00:03:50;;;;;;;1.97;0.60;;;20.20;99.90;;;;;;5037148;28;20632;-82
2021/08/07 00:06:15;;;;;;;1.53;0.60;;;20.20;99.90;;;;;;5054745;28;21162;-82
2021/08/07 00:08:41;;;;;;;1.80;0.60;;;20.20;99.90;;;;;;5059523;28;20169;-82
2021/08/07 00:11:07;;;;;;;1.40;0.70;;;20.10;99.90;;;;;;5055050;28;20184;-82
2021/08/07 00:13:32;;;;;;;1.40;0.67;;;20.10;99.90;;;;;;5054687;28;20770;-82
2021/08/07 00:15:59;;;;;;;2.17;0.73;;;20.10;99.90;;;;;;5036824;28;20200;-81
2021/08/07 00:18:24;;;;;;;2.53;1.00;;;20.10;99.90;;;;;;5055192;28;20983;-81
2021/08/07 00:20:50;;;;;;;2.23;0.80;;;20.10;99.90;;;;;;5020780;28;20169;-81
2021/08/07 00:23:16;;;;;;;1.83;1.07;;;20.00;99.90;;;;;;5036697;28;20161;-81
2021/08/07 00:25:42;;;;;;;1.13;0.70;;;20.00;99.90;;;;;;5054215;28;20599;-81
2021/08/07 00:28:08;;;;;;;1.70;0.70;;;20.00;99.90;;;;;;5020649;28;20169;-81
2021/08/07 00:30:34;;;;;;;2.97;0.70;;;20.00;99.90;;;;;;5054452;28;20228;-81
2021/08/07 00:33:01;;;;;;;2.40;0.73;;;19.90;99.90;;;;;;5054537;28;21002;-81
2021/08/07 00:35:28;;;;;;;2.10;0.73;;;19.90;99.90;;;;;;5035976;28;20951;-81
2021/08/07 00:37:54;;;;;;;1.63;0.70;;;19.90;99.90;;;;;;5034969;28;20726;-81
2021/08/07 00:40:21;;;;;;;1.47;0.80;;;19.80;99.90;;;;;;5020028;28;21130;-81
2021/08/07 00:42:52;;;;;;;4.13;0.80;;;19.80;99.90;;;;;;5037067;28;20667;-81
2021/08/07 00:45:39;;;;;;;2.83;1.10;;;19.70;99.90;;;;;;5039992;28;21015;-81
2021/08/07 00:48:09;;;;;;;2.00;0.60;;;19.70;99.90;;;;;;5036710;28;20625;-81
2021/08/07 00:50:48;;;;;;;2.33;0.70;;;19.60;99.90;;;;;;5036534;28;20563;-81
2021/08/07 00:53:20;;;;;;;1.93;0.70;;;19.50;99.90;;;;;;5036781;28;20567;-78
2021/08/07 00:55:48;;;;;;;1.67;0.67;;;19.50;99.90;;;;;;5012602;28;20619;-78
2021/08/07 00:58:14;;;;;;;1.93;0.70;;;19.40;99.90;;;;;;5032828;28;20626;-78
2021/08/07 01:00:42;;;;;;;2.57;0.73;;;19.40;99.90;;;;;;5034532;28;20947;-78
2021/08/07 01:03:21;;;;;;;6.03;0.90;;;19.40;99.90;;;;;;5036510;28;20575;-77
2021/08/07 01:05:55;;;;;;;1.20;0.50;;;19.30;99.90;;;;;;5034688;28;20601;-77
2021/08/07 01:08:23;;;;;;;3.07;0.60;;;19.30;99.90;;;;;;5052379;28;20576;-78
2021/08/07 01:11:50;;;;;;;1.30;0.80;;;19.30;99.90;;;;;;5037884;28;20606;-77
2021/08/07 01:14:20;;;;;;;1.60;0.70;;;19.20;99.90;;;;;;5020426;28;21290;-78
2021/08/07 01:16:50;;;;;;;1.40;0.80;;;19.20;99.90;;;;;;5035254;28;20750;-79
2021/08/07 01:19:17;;;;;;;3.30;0.70;;;19.20;99.90;;;;;;5019570;28;21146;-79
2021/08/07 01:21:59;;;;;;;1.77;0.80;;;19.20;99.90;;;;;;5019313;28;20658;-79
2021/08/07 01:24:36;;;;;;;1.73;0.80;;;19.20;99.90;;;;;;5035329;28;20667;-79
2021/08/07 01:27:25;;;;;;;1.40;0.70;;;19.20;99.90;;;;;;5018500;28;20587;-79
2021/08/07 01:30:02;;;;;;;1.30;0.70;;;19.20;99.90;;;;;;5035235;28;20571;-79
2021/08/07 01:32:33;;;;;;;2.07;0.90;;;19.20;99.90;;;;;;5035094;28;20563;-79
2021/08/07 01:35:02;;;;;;;1.93;0.80;;;19.20;99.90;;;;;;5035034;28;21257;-79
2021/08/07 01:37:29;;;;;;;2.37;1.00;;;19.20;99.90;;;;;;5034843;28;20681;-79
2021/08/07 01:40:10;;;;;;;2.60;1.00;;;19.20;99.90;;;;;;5018453;28;20629;-79
2021/08/07 01:42:47;;;;;;;1.50;0.70;;;19.20;99.90;;;;;;5018468;28;20938;-79
2021/08/07 01:45:19;;;;;;;1.80;0.80;;;19.10;99.90;;;;;;5034087;28;20667;-77
2021/08/07 01:48:03;;;;;;;2.60;0.83;;;19.10;99.90;;;;;;5034897;28;20629;-79
2021/08/07 01:50:50;;;;;;;1.97;0.80;;;19.10;99.90;;;;;;5034326;28;20575;-79
2021/08/07 01:53:31;;;;;;;1.20;0.60;;;19.00;99.90;;;;;;5034874;28;20568;-79
2021/08/07 01:56:10;;;;;;;2.37;0.70;;;19.00;99.90;;;;;;5017362;28;20647;-79
2021/08/07 01:58:56;;;;;;;2.43;0.70;;;19.00;99.90;;;;;;5035035;28;20560;-79
2021/08/07 02:01:28;;;;;;;1.30;0.70;;;19.00;99.90;;;;;;5017797;28;20587;-79
2021/08/07 02:03:56;;;;;;;3.40;0.70;;;19.00;99.90;;;;;;5034232;28;20581;-80
2021/08/07 02:06:25;;;;;;;2.20;0.70;;;19.00;99.90;;;;;;5034033;28;20706;-79
2021/08/07 02:08:52;;;;;;;1.97;0.80;;;19.00;99.90;;;;;;5018073;28;20575;-78
2021/08/07 02:11:26;;;;;;;1.20;0.60;;;19.00;99.90;;;;;;5034349;28;20690;-79
2021/08/07 02:13:57;;;;;;;1.50;0.67;;;18.90;99.90;;;;;;5018386;28;20646;-79
2021/08/07 02:16:26;;;;;;;1.60;0.70;;;18.90;99.90;;;;;;5033897;28;21072;-79
2021/08/07 02:18:54;;;;;;;1.77;0.70;;;18.90;99.90;;;;;;5034252;28;20567;-79
2021/08/07 02:21:27;;;;;;;2.93;0.70;;;18.80;99.90;;;;;;5034045;28;20575;-79
2021/08/07 02:23:54;;;;;;;2.43;0.70;;;18.80;99.90;;;;;;5034147;28;20645;-79
2021/08/07 02:26:25;;;;;;;1.30;0.70;;;18.80;99.90;;;;;;5017263;28;20619;-79
2021/08/07 02:29:05;;;;;;;1.70;0.80;;;18.70;99.90;;;;;;5019364;28;20591;-78
2021/08/07 02:31:34;;;;;;;1.57;0.70;;;18.70;99.90;;;;;;5033784;28;20584;-78
2021/08/07 02:34:01;;;;;;;1.97;0.77;;;18.60;99.90;;;;;;5017465;28;20649;-78
2021/08/07 02:36:30;;;;;;;1.47;0.67;;;18.60;99.90;;;;;;5017419;28;21013;-78
2021/08/07 02:39:03;;;;;;;2.43;0.80;;;18.60;99.90;;;;;;5033991;28;20625;-79
2021/08/07 02:41:29;;;;;;;2.47;0.80;;;18.50;99.90;;;;;;5033989;28;20567;-79
2021/08/07 02:43:56;;;;;;;1.77;0.73;;;18.50;99.90;;;;;;5033253;28;20621;-80
2021/08/07 02:46:23;;;;;;;2.40;0.80;;;18.50;99.90;;;;;;5033953;28;20981;-80
2021/08/07 02:48:54;;;;;;;1.90;0.73;;;18.50;99.90;;;;;;5033797;28;20571;-77
2021/08/07 02:51:23;;;;;;;1.13;0.70;;;18.50;99.90;;;;;;5017499;28;20579;-82
2021/08/07 02:53:53;;;;;;;4.23;1.00;;;18.40;99.90;;;;;;5017420;28;20575;-81
2021/08/07 02:56:21;;;;;;;2.13;0.70;;;18.40;99.90;;;;;;5033756;28;21128;-82
2021/08/07 02:58:47;;;;;;;3.63;1.00;;;18.40;99.90;;;;;;5033687;28;20563;-82
2021/08/07 03:01:14;;;;;;;2.90;0.80;;;18.40;99.90;;;;;;5033143;28;20895;-81
2021/08/07 03:03:45;;;;;;;2.00;0.90;;;18.30;99.90;;;;;;5033469;28;20555;-82
2021/08/07 03:06:12;;;;;;;4.07;0.80;;;18.30;99.90;;;;;;5033354;28;20603;-81
2021/08/07 03:08:40;;;;;;;2.47;0.90;;;18.30;99.90;;;;;;5033870;28;20563;-80
2021/08/07 03:11:09;;;;;;;2.10;0.80;;;18.30;99.90;;;;;;5006003;28;20571;-80
2021/08/07 03:13:35;;;;;;;2.07;1.07;;;18.30;99.90;;;;;;5037331;28;20939;-80
2021/08/07 03:16:01;;;;;;;2.30;1.00;;;18.30;99.90;;;;;;5033653;28;20635;-81
2021/08/07 03:18:33;;;;;;;1.97;0.90;;;18.30;99.90;;;;;;5034069;28;20173;-81
2021/08/07 03:21:00;;;;;;;3.10;1.03;;;18.30;99.90;;;;;;5036229;28;20574;-81
2021/08/07 03:23:33;;;;;;;2.47;1.10;;;18.20;99.90;;;;;;5037452;28;20902;-81
2021/08/07 03:26:03;;;;;;;3.67;1.20;;;18.20;99.90;;;;;;5034644;28;20706;-80
2021/08/07 03:28:29;;;;;;;2.43;1.00;;;18.20;99.90;;;;;;5036921;28;20626;-82
2021/08/07 03:30:55;;;;;;;1.90;0.80;;;18.20;99.90;;;;;;5019934;28;21168;-81
2021/08/07 03:33:22;;;;;;;3.30;0.80;;;18.20;99.90;;;;;;5038501;28;20602;-81
2021/08/07 03:35:48;;;;;;;1.73;0.70;;;18.20;99.90;;;;;;5036847;28;20694;-81
2021/08/07 03:38:14;;;;;;;1.80;0.70;;;18.20;99.90;;;;;;5054268;28;20611;-81
2021/08/07 03:40:40;;;;;;;2.80;0.90;;;18.10;99.90;;;;;;5018347;28;20619;-82
2021/08/07 03:43:12;;;;;;;2.00;0.80;;;18.20;99.90;;;;;;5034566;28;20572;-82
2021/08/07 03:45:39;;;;;;;1.30;0.63;;;18.20;99.90;;;;;;5034606;28;20603;-83
2021/08/07 03:48:05;;;;;;;1.97;0.73;;;18.20;99.90;;;;;;5036250;28;20682;-82
2021/08/07 03:50:37;;;;;;;2.83;0.90;;;18.20;99.90;;;;;;5037080;28;20630;-82
2021/08/07 03:53:05;;;;;;;7.20;1.47;;;18.20;99.90;;;;;;5040243;28;20583;-82
2021/08/07 03:55:32;;;;;;;1.40;0.80;;;18.20;99.90;;;;;;5034666;28;20718;-81
2021/08/07 03:58:01;;;;;;;1.70;0.90;;;18.20;99.90;;;;;;5033871;28;21056;-82
2021/08/07 04:00:41;;;;;;;1.90;0.80;;;18.20;99.90;;;;;;5034066;28;21124;-81
2021/08/07 04:03:12;;;;;;;1.70;0.90;;;18.30;99.90;;;;;;5033996;28;20646;-80
2021/08/07 04:05:38;;;;;;;3.00;1.00;;;18.30;99.90;;;;;;5016992;28;21202;-82
2021/08/07 04:08:11;;;;;;;1.20;0.60;;;18.30;99.90;;;;;;5017248;28;20575;-82
2021/08/07 04:10:41;;;;;;;2.00;0.97;;;18.30;99.90;;;;;;5033500;28;20567;-83
2021/08/07 04:13:07;;;;;;;2.50;1.00;;;18.30;99.90;;;;;;5053448;28;20930;-82
2021/08/07 04:15:36;;;;;;;3.93;0.70;;;18.30;99.90;;;;;;5036264;28;20631;-83
2021/08/07 04:18:04;;;;;;;1.77;0.80;;;18.30;99.90;;;;;;5037062;28;20629;-82
2021/08/07 04:20:30;;;;;;;1.60;0.70;;;18.40;99.90;;;;;;5036765;28;20606;-82
2021/08/07 04:22:59;;;;;;;1.53;0.60;;;18.40;99.90;;;;;;5037170;28;20568;-83
2021/08/07 04:25:26;;;;;;;2.37;0.90;;;18.40;99.90;;;;;;5039552;28;20614;-81
2021/08/07 04:27:52;;;;;;;3.20;0.90;;;18.40;99.90;;;;;;5037327;28;20583;-82
2021/08/07 04:30:18;;;;;;;1.33;0.80;;;18.40;99.90;;;;;;5036453;28;20574;-82
2021/08/07 04:32:47;;;;;;;1.40;0.70;;;18.40;99.90;;;;;;5036491;28;20610;-81
2021/08/07 04:35:13;;;;;;;3.03;0.80;;;18.40;99.90;;;;;;5035579;28;20697;-81
2021/08/07 04:37:52;;;;;;;1.73;0.70;;;18.50;99.90;;;;;;5036359;28;20618;-81
2021/08/07 04:40:27;;;;;;;2.23;1.00;;;18.40;99.90;;;;;;5019580;28;20568;-81
2021/08/07 04:42:56;;;;;;;1.40;0.80;;;18.50;99.90;;;;;;5036466;28;20571;-81
2021/08/07 04:45:22;;;;;;;1.40;0.70;;;18.50;99.90;;;;;;5035505;28;20603;-81
2021/08/07 04:48:06;;;;;;;2.93;1.20;;;18.50;99.90;;;;;;5035954;28;20641;-81
2021/08/07 04:50:52;;;;;;;2.30;0.70;;;18.50;99.90;;;;;;5042836;28;20587;-81
2021/08/07 04:53:19;;;;;;;1.93;0.70;;;18.60;99.90;;;;;;5036364;28;20563;-83
2021/08/07 04:55:49;;;;;;;2.37;0.63;;;18.50;99.90;;;;;;5035472;28;20641;-82
2021/08/07 04:58:17;;;;;;;2.07;0.70;;;18.60;99.90;;;;;;5035983;28;20560;-82
2021/08/07 05:00:43;;;;;;;1.93;0.70;;;18.60;99.90;;;;;;5036054;28;20563;-82
2021/08/07 05:03:10;;;;;;;1.30;0.70;;;18.70;99.90;;;;;;5039480;28;21078;-81
2021/08/07 05:05:40;;;;;;;1.50;0.80;;;18.70;99.90;;;;;;5053245;28;20690;-82
2021/08/07 05:08:06;;;;;;;2.03;0.70;;;18.70;99.90;;;;;;5035692;28;21201;-81
2021/08/07 05:10:33;;;;;;;4.47;0.80;;;18.70;99.90;;;;;;5035646;28;20212;-82
2021/08/07 05:12:59;;;;;;;1.83;0.80;;;18.80;99.90;;;;;;5020489;28;20571;-81
2021/08/07 05:15:26;;;;;;;1.90;0.70;;;18.80;99.90;;;;;;5035435;28;20623;-78
2021/08/07 05:17:54;;;;;;;3.27;0.90;;;18.80;99.90;;;;;;5035423;28;20622;-79
2021/08/07 05:20:21;;;;;;;2.00;0.80;;;18.90;99.90;;;;;;5035420;28;20572;-79
2021/08/07 05:22:47;;;;;;;1.53;0.80;;;18.90;99.90;;;;;;5035580;28;20662;-79
2021/08/07 05:25:15;;;;;;;1.23;0.63;;;19.00;99.90;;;;;;5033916;28;20729;-78
2021/08/07 05:27:41;;;;;;;3.37;1.10;;;19.00;99.90;;;;;;5018752;28;20564;-79
2021/08/07 05:30:07;;;;;;;2.17;0.90;;;19.00;99.90;;;;;;5035242;28;20583;-78
2021/08/07 05:32:34;;;;;;;2.00;1.00;;;19.10;99.90;;;;;;5035655;28;20578;-79
2021/08/07 05:35:00;;;;;;;2.23;0.80;;;19.10;99.90;;;;;;5034964;28;20936;-79
2021/08/07 05:37:30;;;;;;;2.23;0.90;;;19.20;99.90;;;;;;5053288;28;20630;-79
2021/08/07 05:39:58;;;;;;;3.00;0.80;;;19.20;99.90;;;;;;5035426;28;20560;-79
2021/08/07 05:42:25;;;;;;;2.30;0.73;;;19.20;99.90;;;;;;5018692;28;20590;-79
2021/08/07 05:44:51;;;;;;;3.10;0.70;;;19.30;99.90;;;;;;5034758;28;20587;-78
2021/08/07 05:47:16;;;;;;;1.80;0.80;;;19.30;99.90;;;;;;5035076;28;20682;-79
2021/08/07 05:49:42;;;;;;;1.90;0.70;;;19.40;99.90;;;;;;5018735;28;20169;-78
2021/08/07 05:52:12;;;;;;;1.40;0.70;;;19.40;99.90;;;;;;5034612;28;20885;-78
2021/08/07 05:54:38;;;;;;;3.03;0.80;;;19.50;99.90;;;;;;5034744;28;20579;-78
2021/08/07 05:57:05;;;;;;;1.70;0.80;;;19.50;99.90;;;;;;5004430;28;20703;-79
2021/08/07 05:59:33;;;;;;;1.63;0.70;;;19.50;99.90;;;;;;4987046;28;20681;-79
2021/08/07 06:01:59;;;;;;;2.23;0.80;;;19.50;99.90;;;;;;5005716;28;20668;-78
2021/08/07 06:04:25;;;;;;;1.70;0.73;;;19.60;99.90;;;;;;5004363;28;20688;-78
2021/08/07 06:06:52;;;;;;;2.07;0.80;;;19.50;99.90;;;;;;5006597;28;20191;-79
2021/08/07 06:09:18;;;;;;;1.40;0.70;;;19.60;99.90;;;;;;5005869;28;20596;-79
2021/08/07 06:11:45;;;;;;;3.97;0.87;;;19.60;99.90;;;;;;4989562;28;20593;-79
2021/08/07 06:14:11;;;;;;;1.80;0.70;;;19.60;99.90;;;;;;5023672;28;20581;-79
2021/08/07 06:16:37;;;;;;;1.50;0.60;;;19.70;99.90;;;;;;4999237;28;21051;-78
2021/08/07 06:19:05;;;;;;;2.03;0.70;;;19.80;99.90;;;;;;5012525;28;20604;-78
2021/08/07 06:21:31;;;;;;;1.40;0.60;;;19.80;99.90;;;;;;5009516;28;20577;-79
2021/08/07 06:23:58;;;;;;;2.37;0.90;;;20.00;99.90;;;;;;4999294;28;21333;-79
2021/08/07 06:26:28;;;;;;;2.30;0.70;;;20.00;99.90;;;;;;5014284;28;20189;-78
2021/08/07 06:28:54;;;;;;;2.73;0.70;;;20.10;99.90;;;;;;5013507;28;20588;-78
2021/08/07 06:31:20;;;;;;;1.53;0.63;;;20.10;99.90;;;;;;4992024;28;21087;-78
2021/08/07 06:33:46;;;;;;;2.60;0.70;;;20.20;99.90;;;;;;5015341;28;20173;-79
2021/08/07 06:36:12;;;;;;;1.60;0.60;;;20.20;99.90;;;;;;5026462;28;20648;-79
2021/08/07 06:38:38;;;;;;;3.00;0.67;;;20.30;99.90;;;;;;4997899;28;20565;-79
2021/08/07 06:41:04;;;;;;;3.17;0.80;;;20.40;99.90;;;;;;4998133;28;20928;-79
2021/08/07 06:43:33;;;;;;;4.97;0.67;;;20.50;99.90;;;;;;4981919;28;21294;-79
2021/08/07 06:46:17;;;;;;;3.73;0.80;;;20.60;99.90;;;;;;5014225;28;20612;-79
2021/08/07 06:48:43;;;;;;;3.67;1.30;;;20.80;99.90;;;;;;5014249;28;20571;-79
2021/08/07 06:51:09;;;;;;;1.47;0.60;;;20.90;99.90;;;;;;4997962;28;20583;-79
2021/08/07 06:53:36;;;;;;;2.23;0.90;;;21.00;99.90;;;;;;5014363;28;20715;-80
2021/08/07 06:56:02;;;;;;;2.37;0.60;;;21.20;99.90;;;;;;4997229;28;20605;-80
2021/08/07 06:58:29;;;;;;;1.40;0.60;;;21.20;99.90;;;;;;5014193;28;20572;-80
2021/08/07 07:00:55;;;;;;;1.70;0.70;;;21.30;99.90;;;;;;5031679;28;21089;-80
2021/08/07 07:03:21;;;;;;;2.03;0.60;;;21.30;99.90;;;;;;5014171;28;20176;-80
2021/08/07 07:05:48;;;;;;;2.77;1.30;;;21.30;99.90;;;;;;5013760;28;20616;-81
2021/08/07 07:08:14;;;;;;;2.70;0.80;;;21.30;99.90;;;;;;5031759;28;20658;-80
2021/08/07 07:10:40;;;;;;;2.53;0.73;;;21.30;99.90;;;;;;5013948;28;20166;-80
2021/08/07 07:13:08;;;;;;;2.97;0.80;;;21.30;99.90;;;;;;5013449;28;20660;-80
2021/08/07 07:15:35;;;;;;;2.43;0.90;;;21.30;99.90;;;;;;5013286;28;20608;-80
2021/08/07 07:18:01;;;;;;;2.77;1.40;;;21.50;99.90;;;;;;5014305;28;20612;-79
2021/08/07 07:20:27;;;;;;;1.93;0.70;;;21.60;99.90;;;;;;5032681;28;20557;-80
2021/08/07 07:22:53;;;;;;;2.23;1.00;;;21.60;99.90;;;;;;5013322;28;20173;-80
2021/08/07 07:29:18;;;;;;;1.40;0.80;;;21.80;99.90;;;;;;5021989;28;20629;-77
2021/08/07 07:31:43;;;;;;;1.77;0.80;;;22.00;99.90;;;;;;4996984;28;20951;-79
2021/08/07 07:34:11;;;;;;;2.20;0.90;;;22.10;99.90;;;;;;4997018;28;20180;-79
2021/08/07 07:36:39;;;;;;;1.53;0.70;;;22.40;99.90;;;;;;5013164;28;20628;-79
2021/08/07 07:39:05;;;;;;;1.30;0.60;;;22.60;99.90;;;;;;5013016;28;20583;-79
2021/08/07 07:41:31;;;;;;;2.97;0.70;;;22.70;99.90;;;;;;5013254;28;20577;-79
2021/08/07 07:43:57;;;;;;;1.80;0.80;;;22.90;99.90;;;;;;5012752;28;20564;-79
2021/08/07 07:46:23;;;;;;;2.57;1.20;;;23.10;99.90;;;;;;5013187;28;20732;-79
2021/08/07 07:48:49;;;;;;;2.83;1.77;;;23.30;99.90;;;;;;5016623;28;20176;-79
2021/08/07 07:51:16;;;;;;;3.40;0.87;;;23.60;99.90;;;;;;5017391;28;20588;-78
2021/08/07 07:53:42;;;;;;;1.70;0.83;;;24.10;99.90;;;;;;5017032;28;20551;-79
2021/08/07 07:56:08;;;;;;;1.50;0.70;;;24.70;99.90;;;;;;5016729;28;20600;-79
2021/08/07 07:58:36;;;;;;;1.50;0.63;;;25.20;99.90;;;;;;5000459;28;21164;-78
2021/08/07 08:01:03;;;;;;;1.83;0.70;;;25.60;99.90;;;;;;5000870;28;20614;-80
2021/08/07 08:03:29;;;;;;;1.97;0.70;;;26.00;99.90;;;;;;5017277;28;20564;-78
2021/08/07 08:05:55;;;;;;;2.00;0.77;;;26.40;99.90;;;;;;5016672;28;20678;-78
2021/08/07 08:08:20;;;;;;;1.53;0.70;;;27.10;99.90;;;;;;5017098;28;20564;-79
2021/08/07 08:10:47;;;;;;;1.80;0.60;;;28.00;99.90;;;;;;5016705;28;20220;-79
2021/08/07 08:13:20;;;;;;;1.60;0.60;;;28.90;99.90;;;;;;5000616;28;20667;-79
2021/08/07 08:15:47;;;;;;;1.93;0.70;;;29.80;99.90;;;;;;5016037;28;20718;-79
2021/08/07 08:18:15;;;;;;;3.87;1.00;;;30.60;99.90;;;;;;5000709;28;20716;-79
2021/08/07 08:20:42;;;;;;;3.33;0.80;;;31.50;99.90;;;;;;5016607;28;20574;-79
2021/08/07 08:23:08;;;;;;;2.13;0.70;;;31.70;99.90;;;;;;4980541;28;20577;-79
2021/08/07 08:25:35;;;;;;;2.27;0.70;;;32.20;99.90;;;;;;4997652;28;20936;-79
2021/08/07 08:28:01;;;;;;;1.97;0.60;;;32.80;99.90;;;;;;5003689;28;20601;-79
2021/08/07 08:30:27;;;;;;;2.87;0.60;;;33.10;99.90;;;;;;5036260;28;20202;-79
2021/08/07 08:32:54;;;;;;;1.70;0.57;;;33.40;99.70;;;;;;5020058;28;20997;-79
2021/08/07 08:35:20;;;;;;;2.00;0.60;;;33.80;98.40;;;;;;5035829;28;20595;-79
2021/08/07 08:37:47;;;;;;;1.20;0.60;;;34.10;97.40;;;;;;5036354;28;20635;-78
2021/08/07 08:40:15;;;;;;;2.00;0.80;;;34.30;96.10;;;;;;5036120;28;20579;-79
2021/08/07 08:42:42;;;;;;;1.60;0.80;;;34.30;94.50;;;;;;5020236;28;20577;-79
2021/08/07 08:45:09;;;;;;;2.13;0.60;;;34.10;93.00;;;;;;5053760;28;20600;-79
2021/08/07 08:47:36;;;;;;;1.83;0.70;;;33.70;91.60;;;;;;5053796;28;20958;-79
2021/08/07 08:50:04;;;;;;;2.70;0.53;;;33.40;90.80;;;;;;5036162;28;20586;-79
2021/08/07 08:52:31;;;;;;;1.70;0.60;;;32.90;90.10;;;;;;5019527;28;20580;-79
2021/08/07 08:54:58;;;;;;;2.30;1.07;;;32.50;89.70;;;;;;5035892;28;20606;-79
2021/08/07 08:57:24;;;;;;;1.63;0.70;;;32.10;88.30;;;;;;5035843;28;20614;-78
2021/08/07 08:59:50;;;;;;;2.20;0.70;;;31.70;88.70;;;;;;5053069;28;20175;-78
2021/08/07 09:02:18;;;;;;;1.83;0.70;;;31.30;89.30;;;;;;5036319;28;20629;-78
2021/08/07 09:04:43;;;;;;;2.30;0.63;;;31.00;89.70;;;;;;5036233;28;20595;-79
2021/08/07 09:07:14;;;;;;;2.27;0.60;;;30.70;89.40;;;;;;5039206;28;21156;-79
2021/08/07 09:09:43;;;;;;;2.50;0.63;;;30.50;89.50;;;;;;5036768;28;20666;-78
2021/08/07 09:12:14;;;;;;;3.70;0.80;;;30.30;89.30;;;;;;5031935;28;20599;-80
2021/08/07 09:14:53;;;;;;;;;;;;;;;;;;;;;
2021/08/07 09:17:30;;;;;;;1.60;0.50;;;30.00;89.20;;;;;;5053453;28;20958;-81
2021/08/07 09:20:01;;;;;;;1.83;0.60;;;29.80;88.90;;;;;;5035245;28;20579;-79
2021/08/07 09:22:33;;;;;;;1.10;0.50;;;29.70;89.20;;;;;;5018734;28;20572;-79
2021/08/07 09:25:16;;;;;;;1.53;0.50;;;29.50;89.00;;;;;;5003382;28;20633;-80
2021/08/07 09:27:47;;;;;;;2.63;0.70;;;29.40;88.80;;;;;;5033483;28;21023;-80
2021/08/07 09:30:16;;;;;;;1.20;0.50;;;29.30;89.00;;;;;;5035068;28;20594;-79
2021/08/07 09:33:00;;;;;;;1.90;0.60;;;29.20;89.50;;;;;;5035237;28;20590;-80
2021/08/07 09:35:33;;;;;;;1.73;0.70;;;29.30;90.00;;;;;;5018639;28;21072;-80
2021/08/07 09:38:18;;;;;;;2.53;0.70;;;29.40;90.00;;;;;;5032970;28;20630;-79
2021/08/07 09:40:49;;;;;;;2.70;1.63;;;29.50;89.50;;;;;;5035094;28;20952;-78
2021/08/07 09:43:22;;;;;;;1.30;0.70;;;29.50;89.60;;;;;;5034974;28;20568;-79
2021/08/07 09:46:08;;;;;;;2.83;0.57;;;29.40;89.00;;;;;;5034148;28;20641;-79
2021/08/07 09:48:40;;;;;;;1.60;0.70;;;29.40;88.80;;;;;;5034861;28;20612;-79
2021/08/07 09:51:27;;;;;;;1.63;0.60;;;29.40;89.30;;;;;;5034462;28;20572;-80
2021/08/07 09:54:09;;;;;;;2.33;0.70;;;29.50;87.80;;;;;;5034603;28;20571;-79
2021/08/07 09:56:55;;;;;;;2.27;0.90;;;29.60;89.00;;;;;;5054466;28;20647;-79
2021/08/07 09:59:29;;;;;;;1.83;1.00;;;29.80;88.70;;;;;;5034782;28;21118;-80
2021/08/07 10:01:57;;;;;;;2.10;0.80;;;29.90;88.30;;;;;;5018014;28;20572;-80
2021/08/07 10:04:38;;;;;;;2.80;0.60;;;29.90;87.80;;;;;;5034481;28;20618;-80
2021/08/07 10:07:09;;;;;;;2.60;0.70;;;29.80;85.70;;;;;;5034366;28;20625;-80
2021/08/07 10:09:46;;;;;;;1.20;0.60;;;29.60;84.90;;;;;;5034196;28;20626;-80
2021/08/07 10:12:15;;;;;;;2.30;1.00;;;29.30;84.10;;;;;;5033936;28;21526;-81
2021/08/07 10:14:46;;;;;;;1.67;0.63;;;29.00;84.10;;;;;;5034166;28;20587;-80
2021/08/07 10:17:15;;;;;;;2.77;0.80;;;28.80;85.00;;;;;;5033633;28;20619;-79
2021/08/07 10:19:42;;;;;;;3.00;0.80;;;28.80;85.60;;;;;;5034227;28;20556;-79
2021/08/07 10:22:12;;;;;;;2.47;0.70;;;28.80;86.20;;;;;;5017424;28;21552;-79
2021/08/07 10:24:46;;;;;;;2.40;0.80;;;29.10;88.90;;;;;;5017394;28;20579;-79
2021/08/07 10:27:17;;;;;;;2.00;0.70;;;29.50;88.10;;;;;;5033011;28;20583;-80
2021/08/07 10:29:50;;;;;;;2.27;0.77;;;29.70;86.80;;;;;;5017554;28;20587;-81
2021/08/07 10:32:17;;;;;;;1.73;0.80;;;29.80;85.50;;;;;;5019551;28;20572;-79
2021/08/07 10:34:48;;;;;;;1.87;0.73;;;29.70;84.40;;;;;;5017640;28;20949;-80
2021/08/07 10:37:14;;;;;;;1.80;0.70;;;29.60;83.40;;;;;;5018484;28;20627;-85
2021/08/07 10:39:42;;;;;;;1.97;0.77;;;29.40;83.20;;;;;;5020283;28;20608;-81
2021/08/07 10:42:08;;;;;;;2.23;0.80;;;29.20;83.20;;;;;;5034164;28;20567;-84
2021/08/07 10:44:35;;;;;;;1.77;0.60;;;29.00;82.80;;;;;;5050674;28;20572;-84
2021/08/07 10:47:01;;;;;;;2.47;0.77;;;28.70;82.10;;;;;;5033654;28;20576;-81
2021/08/07 10:49:38;;;;;;;2.97;0.80;;;28.40;81.50;;;;;;5033864;28;20936;-81
2021/08/07 10:52:23;;;;;;;1.43;0.60;;;28.10;81.50;;;;;;5033968;28;20631;-84
2021/08/07 10:54:54;;;;;;;1.63;0.70;;;27.90;82.50;;;;;;5033552;28;20583;-83
2021/08/07 10:57:42;;;;;;;1.40;0.60;;;27.60;82.90;;;;;;5051667;28;20641;-84
2021/08/07 11:00:17;;;;;;;1.30;0.63;;;27.30;84.00;;;;;;5051924;28;20610;-84
2021/08/07 11:02:44;;;;;;;1.30;0.50;;;27.10;84.30;;;;;;5033661;28;20571;-84
2021/08/07 11:05:10;;;;;;;1.70;0.60;;;26.80;83.90;;;;;;5016601;28;21259;-84
2021/08/07 11:07:36;;;;;;;2.83;0.70;;;26.50;85.20;;;;;;5033340;28;21250;-85
2021/08/07 11:10:07;;;;;;;1.63;0.60;;;26.20;86.70;;;;;;5039151;28;20227;-85
2021/08/07 11:12:33;;;;;;;2.40;0.77;;;25.90;89.00;;;;;;5017346;28;20931;-84
2021/08/07 11:15:02;;;;;;;1.70;0.73;;;25.60;90.10;;;;;;5033125;28;20623;-83
2021/08/07 11:17:32;;;;;;;2.80;0.80;;;25.40;90.60;;;;;;5006870;23;20703;-79
2021/08/07 11:20:10;;;;;;;1.70;0.93;;;25.20;91.20;;;;;;4987571;28;20613;-78
2021/08/07 11:22:36;;;;;;;1.83;0.90;;;25.10;92.40;;;;;;5009611;28;20573;-78
2021/08/07 11:25:19;;;;;;;2.90;1.13;;;25.00;92.60;;;;;;4993375;28;20613;-81
2021/08/07 11:27:49;;;;;;;1.70;0.80;;;25.10;93.80;;;;;;4959426;28;20978;-81
2021/08/07 11:30:31;;;;;;;2.80;0.70;;;25.30;93.90;;;;;;4974422;28;21014;-82
2021/08/07 11:33:09;;;;;;;2.80;0.80;;;25.50;94.90;;;;;;4974004;28;20601;-81
2021/08/07 11:35:38;;;;;;;2.07;0.90;;;26.00;95.70;;;;;;4972972;28;21207;-81
2021/08/07 11:38:09;;;;;;;1.53;0.63;;;26.40;96.70;;;;;;4966274;28;20668;-81
2021/08/07 11:40:50;;;;;;;3.10;0.80;;;26.90;96.70;;;;;;4991588;28;20599;-81
2021/08/07 11:43:26;;;;;;;1.40;0.53;;;27.40;96.30;;;;;;4986317;28;20949;-80
2021/08/07 11:45:54;;;;;;;2.37;0.60;;;27.80;95.30;;;;;;4959111;28;20589;-81
2021/08/07 11:48:22;;;;;;;2.30;0.83;;;28.10;94.50;;;;;;5008382;28;21147;-81
2021/08/07 11:50:48;;;;;;;2.47;0.50;;;28.40;93.60;;;;;;4993791;28;20589;-80
2021/08/07 11:53:16;;;;;;;1.50;0.60;;;28.40;92.50;;;;;;4993921;28;20656;-81
2021/08/07 11:55:42;;;;;;;2.83;0.77;;;28.50;91.70;;;;;;4960172;28;20713;-80
2021/08/07 11:58:11;;;;;;;1.33;0.50;;;28.60;91.10;;;;;;4982214;28;21292;-80
2021/08/07 12:00:39;;;;;;;1.77;0.60;;;28.80;91.10;;;;;;4992744;28;20600;-80
2021/08/07 12:03:12;;;;;;;1.00;0.40;;;29.10;91.50;;;;;;4961434;28;20601;-79
2021/08/07 12:05:55;;;;;;;1.20;0.50;;;29.40;91.20;;;;;;5010912;28;20566;-80
2021/08/07 12:08:23;;;;;;;1.50;0.50;;;29.90;91.80;;;;;;4977591;28;20581;-80
2021/08/07 12:10:49;;;;;;;1.30;0.50;;;30.40;91.00;;;;;;4976360;28;20605;-80
2021/08/07 12:13:19;;;;;;;1.20;0.50;;;30.70;88.50;;;;;;4991337;28;20590;-79
2021/08/07 12:16:03;;;;;;;1.80;0.50;;;30.90;84.70;;;;;;4990950;28;20188;-79
2021/08/07 12:18:47;;;;;;;3.13;0.70;;;31.00;82.00;;;;;;4959441;28;20600;-79
2021/08/07 12:21:27;;;;;;;2.80;1.10;;;31.00;81.70;;;;;;4973846;28;20640;-79
2021/08/07 12:23:57;;;;;;;2.03;0.70;;;31.10;79.80;;;;;;4958060;28;21140;-79
2021/08/07 12:26:25;;;;;;;1.97;0.80;;;31.20;79.50;;;;;;4980695;28;21221;-79
2021/08/07 12:29:04;;;;;;;1.63;0.73;;;31.40;80.00;;;;;;4964705;28;21049;-79
2021/08/07 12:31:44;;;;;;;1.67;0.60;;;31.60;77.70;;;;;;4973721;28;21167;-80
2021/08/07 12:34:27;;;;;;;1.43;0.80;;;31.80;74.90;;;;;;4992115;28;20695;-80
2021/08/07 12:37:09;;;;;;;1.40;0.60;;;31.90;76.80;;;;;;5003123;28;20655;-80
2021/08/07 12:39:38;;;;;;;2.10;0.50;;;32.00;73.90;;;;;;4994917;28;20654;-79
2021/08/07 12:42:05;;;;;;;2.03;0.80;;;32.00;72.50;;;;;;4977352;28;20679;-80
2021/08/07 12:44:30;;;;;;;1.67;0.60;;;32.00;72.00;;;;;;4994562;28;20572;-80
2021/08/07 12:46:57;;;;;;;1.40;0.67;;;32.00;71.10;;;;;;4992813;28;20638;-80
2021/08/07 12:49:35;;;;;;;1.60;0.50;;;31.80;69.10;;;;;;4998278;28;20214;-80
2021/08/07 12:52:07;;;;;;;1.30;0.50;;;31.60;67.70;;;;;;4976844;28;20694;-81
2021/08/07 12:54:33;;;;;;;1.83;0.57;;;31.30;67.60;;;;;;4976704;28;20596;-80
2021/08/07 12:56:59;;;;;;;1.20;0.50;;;31.10;67.70;;;;;;4993772;28;20625;-79
2021/08/07 12:59:24;;;;;;;1.73;0.50;;;30.90;67.20;;;;;;4980277;28;20946;-79
2021/08/07 13:02:02;;;;;;;1.20;0.50;;;30.80;67.00;;;;;;4971748;28;20175;-80
2021/08/07 13:04:46;;;;;;;2.50;1.50;;;30.60;66.20;;;;;;4973315;28;20175;-79
2021/08/07 13:07:14;;;;;;;3.43;2.70;;;30.40;65.60;;;;;;4958014;28;20630;-79